Strona główna
METAR-TAF:

METAR-TAF

Lotnisko :

Harrisburg / Middletown, Pensylwania, Stany Zjednoczone

Szerokość geograficzna: 40-11-37N, Długość geograficzna: 076-45-48W, wysokość: 95 m

Aktualna obserwacja pogody

Raport powstał 28 minut temu, godzina 21:56 UTC
Wiatr 3 kt od południowo-południowy wschód
Temperatura 14°C
Wilgotność 58%
Ciśnienie 1016 hPa
Widzialność: 16.1 km
Zachmurzenie całkowite na wysokości 4400 ft

METAR: KMDT 042156Z 16003KT 10SM OVC044 14/06 A2999 RMK AO2 SLP156 T01390056

czas: 18:24 (22:24 UTC)

Prognoza

Raport powstał 1 godzina i 12 minut temu, godzina 21:12 UTC
Prognoza ważna od 04 godzina 21 UTC do 05 godzina 18 UTC
Wiatr 5 kt z kierunków zmiennych
Widzialność: 10 km
Przerywane chmury na wysokości 4000 ft

TAF: KMDT 042112Z 0421/0518 VRB05KT P6SM BKN040

Obserwacja i prognoza pogody dla ponad 4000 lotnisk (raport METAR i TAF).

Dostępne stacje oznaczono żółtymi i czerwonymi punktami na mapie.

Najedź kursorem aby zobaczyć nazwę stacji.

Kliknij aby zobaczyć obserwacje i prognozy pogody.

Aby zmienić mapę: kliknij na zielony przycisk z czarnym krzyżykiem, aby powiększyć; na zielony przycisk z myślnikiem, aby pomniejszyć; na zielone strzałki, aby przejść do map sąsiednich.


METAR-TAF: